sensor_id;sensor_type;location;lat;lon;timestamp;P1;durP1;ratioP1;P2;durP2;ratioP2
74957;SDS011;63741;42.624;26.276;2023-03-01T00:01:27;4.63;;;1.60;;
74957;SDS011;63741;42.624;26.276;2023-03-01T00:03:55;3.35;;;1.77;;
74957;SDS011;63741;42.624;26.276;2023-03-01T00:06:23;2.60;;;1.60;;
74957;SDS011;63741;42.624;26.276;2023-03-01T00:08:51;2.65;;;1.48;;
74957;SDS011;63741;42.624;26.276;2023-03-01T00:11:19;2.90;;;1.73;;
74957;SDS011;63741;42.624;26.276;2023-03-01T00:13:47;4.45;;;1.92;;
74957;SDS011;63741;42.624;26.276;2023-03-01T00:16:16;6.15;;;3.05;;
74957;SDS011;63741;42.624;26.276;2023-03-01T00:18:45;8.38;;;4.80;;
74957;SDS011;63741;42.624;26.276;2023-03-01T00:21:12;14.68;;;7.78;;
74957;SDS011;63741;42.624;26.276;2023-03-01T00:23:40;4.28;;;2.40;;
74957;SDS011;63741;42.624;26.276;2023-03-01T00:26:08;4.28;;;1.80;;
74957;SDS011;63741;42.624;26.276;2023-03-01T00:31:07;2.08;;;1.33;;
74957;SDS011;63741;42.624;26.276;2023-03-01T00:33:37;3.42;;;2.15;;
74957;SDS011;63741;42.624;26.276;2023-03-01T00:36:04;2.45;;;1.73;;
74957;SDS011;63741;42.624;26.276;2023-03-01T00:38:34;2.35;;;1.45;;
74957;SDS011;63741;42.624;26.276;2023-03-01T00:41:09;2.42;;;1.50;;
74957;SDS011;63741;42.624;26.276;2023-03-01T00:43:37;2.78;;;1.20;;
74957;SDS011;63741;42.624;26.276;2023-03-01T00:46:05;2.15;;;1.15;;
74957;SDS011;63741;42.624;26.276;2023-03-01T00:48:35;1.58;;;0.90;;
74957;SDS011;63741;42.624;26.276;2023-03-01T00:51:10;4.43;;;1.55;;
74957;SDS011;63741;42.624;26.276;2023-03-01T00:53:49;2.45;;;1.60;;
74957;SDS011;63741;42.624;26.276;2023-03-01T00:56:17;2.35;;;1.35;;
74957;SDS011;63741;42.624;26.276;2023-03-01T00:58:44;2.88;;;1.50;;
74957;SDS011;63741;42.624;26.276;2023-03-01T01:01:13;3.65;;;1.25;;
74957;SDS011;63741;42.624;26.276;2023-03-01T01:03:52;2.22;;;1.13;;
74957;SDS011;63741;42.624;26.276;2023-03-01T01:08:51;2.20;;;1.50;;
74957;SDS011;63741;42.624;26.276;2023-03-01T01:11:19;5.10;;;1.48;;
74957;SDS011;63741;42.624;26.276;2023-03-01T01:13:46;3.17;;;1.90;;
74957;SDS011;63741;42.624;26.276;2023-03-01T01:16:14;2.90;;;1.90;;
74957;SDS011;63741;42.624;26.276;2023-03-01T01:18:42;2.60;;;1.83;;
74957;SDS011;63741;42.624;26.276;2023-03-01T01:21:11;5.03;;;2.15;;
74957;SDS011;63741;42.624;26.276;2023-03-01T01:23:40;4.60;;;2.28;;
74957;SDS011;63741;42.624;26.276;2023-03-01T01:26:10;4.03;;;2.22;;
74957;SDS011;63741;42.624;26.276;2023-03-01T01:28:39;5.03;;;2.70;;
74957;SDS011;63741;42.624;26.276;2023-03-01T01:31:06;4.22;;;2.50;;
74957;SDS011;63741;42.624;26.276;2023-03-01T01:33:34;4.80;;;2.70;;
74957;SDS011;63741;42.624;26.276;2023-03-01T01:36:01;4.95;;;3.05;;
74957;SDS011;63741;42.624;26.276;2023-03-01T01:38:28;3.95;;;2.55;;
74957;SDS011;63741;42.624;26.276;2023-03-01T01:40:55;5.03;;;2.55;;
74957;SDS011;63741;42.624;26.276;2023-03-01T01:43:23;5.78;;;2.53;;
74957;SDS011;63741;42.624;26.276;2023-03-01T01:45:54;4.80;;;2.45;;
74957;SDS011;63741;42.624;26.276;2023-03-01T01:48:34;3.83;;;2.13;;
74957;SDS011;63741;42.624;26.276;2023-03-01T01:51:12;4.65;;;2.20;;
74957;SDS011;63741;42.624;26.276;2023-03-01T01:53:43;4.38;;;2.40;;
74957;SDS011;63741;42.624;26.276;2023-03-01T01:56:13;5.43;;;2.35;;
74957;SDS011;63741;42.624;26.276;2023-03-01T01:58:43;4.47;;;1.95;;
74957;SDS011;63741;42.624;26.276;2023-03-01T02:01:11;4.97;;;2.42;;
74957;SDS011;63741;42.624;26.276;2023-03-01T02:03:38;4.90;;;2.50;;
74957;SDS011;63741;42.624;26.276;2023-03-01T02:06:15;3.63;;;2.20;;
74957;SDS011;63741;42.624;26.276;2023-03-01T02:08:48;3.10;;;2.20;;
74957;SDS011;63741;42.624;26.276;2023-03-01T02:11:19;3.17;;;2.00;;
74957;SDS011;63741;42.624;26.276;2023-03-01T02:13:47;3.20;;;1.98;;
74957;SDS011;63741;42.624;26.276;2023-03-01T02:16:15;3.20;;;2.13;;
74957;SDS011;63741;42.624;26.276;2023-03-01T02:18:42;4.25;;;2.58;;
74957;SDS011;63741;42.624;26.276;2023-03-01T02:21:14;4.95;;;2.55;;
74957;SDS011;63741;42.624;26.276;2023-03-01T02:23:48;4.20;;;2.53;;
74957;SDS011;63741;42.624;26.276;2023-03-01T02:28:51;3.05;;;1.90;;
74957;SDS011;63741;42.624;26.276;2023-03-01T02:31:19;3.58;;;2.10;;
74957;SDS011;63741;42.624;26.276;2023-03-01T02:34:06;3.90;;;2.17;;
74957;SDS011;63741;42.624;26.276;2023-03-01T02:36:36;2.67;;;1.10;;
74957;SDS011;63741;42.624;26.276;2023-03-01T02:39:06;1.42;;;0.90;;
74957;SDS011;63741;42.624;26.276;2023-03-01T02:41:41;1.00;;;0.60;;
74957;SDS011;63741;42.624;26.276;2023-03-01T02:44:12;0.60;;;0.40;;
74957;SDS011;63741;42.624;26.276;2023-03-01T02:46:50;0.60;;;0.35;;
74957;SDS011;63741;42.624;26.276;2023-03-01T02:52:07;2.28;;;0.30;;
74957;SDS011;63741;42.624;26.276;2023-03-01T02:57:14;1.85;;;0.17;;
74957;SDS011;63741;42.624;26.276;2023-03-01T02:59:42;0.40;;;0.20;;
74957;SDS011;63741;42.624;26.276;2023-03-01T03:02:26;0.52;;;0.25;;
74957;SDS011;63741;42.624;26.276;2023-03-01T03:05:10;0.10;;;0.10;;
74957;SDS011;63741;42.624;26.276;2023-03-01T03:07:41;0.20;;;0.10;;
74957;SDS011;63741;42.624;26.276;2023-03-01T03:10:11;0.47;;;0.30;;
74957;SDS011;63741;42.624;26.276;2023-03-01T03:12:41;1.20;;;0.30;;
74957;SDS011;63741;42.624;26.276;2023-03-01T03:15:09;0.50;;;0.25;;
74957;SDS011;63741;42.624;26.276;2023-03-01T03:17:39;0.90;;;0.43;;
74957;SDS011;63741;42.624;26.276;2023-03-01T03:20:12;1.10;;;0.65;;
74957;SDS011;63741;42.624;26.276;2023-03-01T03:22:49;1.25;;;0.50;;
74957;SDS011;63741;42.624;26.276;2023-03-01T03:25:19;1.70;;;0.70;;
74957;SDS011;63741;42.624;26.276;2023-03-01T03:27:50;1.40;;;0.70;;
74957;SDS011;63741;42.624;26.276;2023-03-01T03:30:27;1.10;;;0.60;;
74957;SDS011;63741;42.624;26.276;2023-03-01T03:32:56;2.40;;;0.90;;
74957;SDS011;63741;42.624;26.276;2023-03-01T03:35:28;1.05;;;0.32;;
74957;SDS011;63741;42.624;26.276;2023-03-01T03:37:57;0.73;;;0.50;;
74957;SDS011;63741;42.624;26.276;2023-03-01T03:40:30;1.95;;;0.55;;
74957;SDS011;63741;42.624;26.276;2023-03-01T03:43:06;1.30;;;0.30;;
74957;SDS011;63741;42.624;26.276;2023-03-01T03:45:53;0.60;;;0.40;;
74957;SDS011;63741;42.624;26.276;2023-03-01T03:48:20;0.60;;;0.30;;
74957;SDS011;63741;42.624;26.276;2023-03-01T03:50:48;0.88;;;0.40;;
74957;SDS011;63741;42.624;26.276;2023-03-01T03:53:17;1.40;;;0.52;;
74957;SDS011;63741;42.624;26.276;2023-03-01T03:55:45;1.25;;;0.60;;
74957;SDS011;63741;42.624;26.276;2023-03-01T03:58:50;2.38;;;0.80;;
74957;SDS011;63741;42.624;26.276;2023-03-01T04:01:37;1.85;;;1.10;;
74957;SDS011;63741;42.624;26.276;2023-03-01T04:04:04;3.58;;;2.05;;
74957;SDS011;63741;42.624;26.276;2023-03-01T04:06:31;3.30;;;2.10;;
74957;SDS011;63741;42.624;26.276;2023-03-01T04:08:58;4.18;;;2.80;;
74957;SDS011;63741;42.624;26.276;2023-03-01T04:11:28;3.33;;;2.60;;
74957;SDS011;63741;42.624;26.276;2023-03-01T04:13:56;7.88;;;5.63;;
74957;SDS011;63741;42.624;26.276;2023-03-01T04:16:25;5.03;;;3.80;;
74957;SDS011;63741;42.624;26.276;2023-03-01T04:18:52;3.40;;;2.60;;
74957;SDS011;63741;42.624;26.276;2023-03-01T04:21:20;2.80;;;2.13;;
74957;SDS011;63741;42.624;26.276;2023-03-01T04:23:47;2.00;;;1.27;;
74957;SDS011;63741;42.624;26.276;2023-03-01T04:26:14;2.30;;;1.25;;
74957;SDS011;63741;42.624;26.276;2023-03-01T04:28:41;3.60;;;1.63;;
74957;SDS011;63741;42.624;26.276;2023-03-01T04:31:13;8.98;;;5.70;;
74957;SDS011;63741;42.624;26.276;2023-03-01T04:36:10;9.60;;;4.40;;
74957;SDS011;63741;42.624;26.276;2023-03-01T04:38:38;16.65;;;9.20;;
74957;SDS011;63741;42.624;26.276;2023-03-01T04:41:07;3.45;;;2.20;;
74957;SDS011;63741;42.624;26.276;2023-03-01T04:43:36;5.63;;;4.05;;
74957;SDS011;63741;42.624;26.276;2023-03-01T04:46:04;9.27;;;5.93;;
74957;SDS011;63741;42.624;26.276;2023-03-01T04:48:35;7.22;;;3.67;;
74957;SDS011;63741;42.624;26.276;2023-03-01T04:51:03;47.63;;;15.82;;
74957;SDS011;63741;42.624;26.276;2023-03-01T04:53:32;51.33;;;19.15;;
74957;SDS011;63741;42.624;26.276;2023-03-01T04:55:59;15.38;;;5.80;;
74957;SDS011;63741;42.624;26.276;2023-03-01T04:58:27;7.97;;;3.25;;
74957;SDS011;63741;42.624;26.276;2023-03-01T05:00:54;6.03;;;4.50;;
74957;SDS011;63741;42.624;26.276;2023-03-01T05:03:21;7.70;;;4.45;;
74957;SDS011;63741;42.624;26.276;2023-03-01T05:05:50;7.82;;;3.00;;
74957;SDS011;63741;42.624;26.276;2023-03-01T05:08:18;3.72;;;1.38;;
74957;SDS011;63741;42.624;26.276;2023-03-01T05:10:51;1.27;;;0.77;;
74957;SDS011;63741;42.624;26.276;2023-03-01T05:13:19;1.60;;;0.80;;
74957;SDS011;63741;42.624;26.276;2023-03-01T05:15:54;3.42;;;1.10;;
74957;SDS011;63741;42.624;26.276;2023-03-01T05:18:24;1.42;;;0.80;;
74957;SDS011;63741;42.624;26.276;2023-03-01T05:21:01;3.40;;;1.98;;
74957;SDS011;63741;42.624;26.276;2023-03-01T05:23:31;4.05;;;1.52;;
74957;SDS011;63741;42.624;26.276;2023-03-01T05:26:02;2.35;;;1.30;;
74957;SDS011;63741;42.624;26.276;2023-03-01T05:28:33;2.78;;;1.45;;
74957;SDS011;63741;42.624;26.276;2023-03-01T05:31:00;1.45;;;0.80;;
74957;SDS011;63741;42.624;26.276;2023-03-01T05:33:27;1.67;;;0.90;;
74957;SDS011;63741;42.624;26.276;2023-03-01T05:35:54;6.28;;;3.30;;
74957;SDS011;63741;42.624;26.276;2023-03-01T05:38:21;5.20;;;2.58;;
74957;SDS011;63741;42.624;26.276;2023-03-01T05:40:48;9.75;;;4.50;;
74957;SDS011;63741;42.624;26.276;2023-03-01T05:43:16;5.20;;;2.33;;
74957;SDS011;63741;42.624;26.276;2023-03-01T05:45:44;2.03;;;1.10;;
74957;SDS011;63741;42.624;26.276;2023-03-01T05:48:11;1.85;;;1.20;;
74957;SDS011;63741;42.624;26.276;2023-03-01T05:50:40;5.32;;;1.50;;
74957;SDS011;63741;42.624;26.276;2023-03-01T05:53:10;2.95;;;1.33;;
74957;SDS011;63741;42.624;26.276;2023-03-01T05:55:41;1.95;;;0.95;;
74957;SDS011;63741;42.624;26.276;2023-03-01T05:58:10;1.60;;;1.00;;
74957;SDS011;63741;42.624;26.276;2023-03-01T06:00:40;2.13;;;1.00;;
74957;SDS011;63741;42.624;26.276;2023-03-01T06:03:09;1.77;;;1.00;;
74957;SDS011;63741;42.624;26.276;2023-03-01T06:05:39;3.55;;;1.90;;
74957;SDS011;63741;42.624;26.276;2023-03-01T06:08:06;3.25;;;2.00;;
74957;SDS011;63741;42.624;26.276;2023-03-01T06:10:33;2.60;;;1.38;;
74957;SDS011;63741;42.624;26.276;2023-03-01T06:13:00;4.10;;;2.13;;
74957;SDS011;63741;42.624;26.276;2023-03-01T06:15:27;4.47;;;2.30;;
74957;SDS011;63741;42.624;26.276;2023-03-01T06:17:54;2.95;;;1.48;;
74957;SDS011;63741;42.624;26.276;2023-03-01T06:20:26;3.58;;;2.10;;
74957;SDS011;63741;42.624;26.276;2023-03-01T06:22:54;6.03;;;3.97;;
74957;SDS011;63741;42.624;26.276;2023-03-01T06:25:22;6.40;;;3.72;;
74957;SDS011;63741;42.624;26.276;2023-03-01T06:27:50;7.25;;;4.50;;
74957;SDS011;63741;42.624;26.276;2023-03-01T06:30:19;7.70;;;4.50;;
74957;SDS011;63741;42.624;26.276;2023-03-01T06:32:48;6.63;;;3.72;;
74957;SDS011;63741;42.624;26.276;2023-03-01T06:35:16;6.78;;;2.80;;
74957;SDS011;63741;42.624;26.276;2023-03-01T06:37:44;2.45;;;1.20;;
74957;SDS011;63741;42.624;26.276;2023-03-01T06:40:13;4.35;;;2.40;;
74957;SDS011;63741;42.624;26.276;2023-03-01T06:42:42;4.78;;;3.33;;
74957;SDS011;63741;42.624;26.276;2023-03-01T06:45:10;5.70;;;3.30;;
74957;SDS011;63741;42.624;26.276;2023-03-01T06:47:37;8.75;;;4.68;;
74957;SDS011;63741;42.624;26.276;2023-03-01T06:50:05;13.07;;;6.43;;
74957;SDS011;63741;42.624;26.276;2023-03-01T06:52:32;8.38;;;5.13;;
74957;SDS011;63741;42.624;26.276;2023-03-01T06:54:59;3.97;;;2.50;;
74957;SDS011;63741;42.624;26.276;2023-03-01T06:57:27;4.72;;;3.20;;
74957;SDS011;63741;42.624;26.276;2023-03-01T06:59:54;3.05;;;2.00;;
74957;SDS011;63741;42.624;26.276;2023-03-01T07:02:21;4.25;;;2.42;;
74957;SDS011;63741;42.624;26.276;2023-03-01T07:04:49;2.53;;;1.45;;
74957;SDS011;63741;42.624;26.276;2023-03-01T07:07:17;3.83;;;1.58;;
74957;SDS011;63741;42.624;26.276;2023-03-01T07:09:44;2.83;;;1.42;;
74957;SDS011;63741;42.624;26.276;2023-03-01T07:12:12;2.50;;;1.48;;
74957;SDS011;63741;42.624;26.276;2023-03-01T07:14:39;2.97;;;1.38;;
74957;SDS011;63741;42.624;26.276;2023-03-01T07:17:06;2.10;;;1.20;;
74957;SDS011;63741;42.624;26.276;2023-03-01T07:19:33;12.27;;;6.20;;
74957;SDS011;63741;42.624;26.276;2023-03-01T07:21:59;8.65;;;4.28;;
74957;SDS011;63741;42.624;26.276;2023-03-01T07:24:26;6.60;;;3.50;;
74957;SDS011;63741;42.624;26.276;2023-03-01T07:26:53;5.03;;;2.80;;
74957;SDS011;63741;42.624;26.276;2023-03-01T07:29:20;3.47;;;2.00;;
74957;SDS011;63741;42.624;26.276;2023-03-01T07:31:47;3.10;;;1.70;;
74957;SDS011;63741;42.624;26.276;2023-03-01T07:34:14;2.88;;;1.58;;
74957;SDS011;63741;42.624;26.276;2023-03-01T07:36:41;3.15;;;1.67;;
74957;SDS011;63741;42.624;26.276;2023-03-01T07:39:10;3.30;;;1.50;;
74957;SDS011;63741;42.624;26.276;2023-03-01T07:41:37;2.45;;;1.33;;
74957;SDS011;63741;42.624;26.276;2023-03-01T07:44:04;2.88;;;1.23;;
74957;SDS011;63741;42.624;26.276;2023-03-01T07:46:32;4.20;;;1.40;;
74957;SDS011;63741;42.624;26.276;2023-03-01T07:48:59;6.85;;;2.80;;
74957;SDS011;63741;42.624;26.276;2023-03-01T07:51:26;6.25;;;3.60;;
74957;SDS011;63741;42.624;26.276;2023-03-01T07:53:53;11.48;;;6.60;;
74957;SDS011;63741;42.624;26.276;2023-03-01T07:56:20;4.00;;;2.10;;
74957;SDS011;63741;42.624;26.276;2023-03-01T07:58:48;7.35;;;4.13;;
74957;SDS011;63741;42.624;26.276;2023-03-01T08:01:17;10.93;;;6.35;;
74957;SDS011;63741;42.624;26.276;2023-03-01T08:03:45;5.30;;;2.72;;
74957;SDS011;63741;42.624;26.276;2023-03-01T08:06:13;30.05;;;12.57;;
74957;SDS011;63741;42.624;26.276;2023-03-01T08:08:42;9.70;;;4.22;;
74957;SDS011;63741;42.624;26.276;2023-03-01T08:11:13;7.03;;;2.90;;
74957;SDS011;63741;42.624;26.276;2023-03-01T08:13:41;16.83;;;7.93;;
74957;SDS011;63741;42.624;26.276;2023-03-01T08:16:12;9.90;;;5.10;;
74957;SDS011;63741;42.624;26.276;2023-03-01T08:18:41;3.75;;;2.35;;
74957;SDS011;63741;42.624;26.276;2023-03-01T08:21:10;5.40;;;3.03;;
74957;SDS011;63741;42.624;26.276;2023-03-01T08:23:39;5.22;;;2.60;;
74957;SDS011;63741;42.624;26.276;2023-03-01T08:26:11;5.13;;;2.83;;
74957;SDS011;63741;42.624;26.276;2023-03-01T08:28:43;4.07;;;2.30;;
74957;SDS011;63741;42.624;26.276;2023-03-01T08:33:49;7.05;;;3.40;;
74957;SDS011;63741;42.624;26.276;2023-03-01T08:36:22;12.93;;;6.57;;
74957;SDS011;63741;42.624;26.276;2023-03-01T08:39:01;10.27;;;4.55;;
74957;SDS011;63741;42.624;26.276;2023-03-01T08:41:28;22.20;;;9.68;;
74957;SDS011;63741;42.624;26.276;2023-03-01T08:43:55;8.55;;;4.47;;
74957;SDS011;63741;42.624;26.276;2023-03-01T08:46:32;17.63;;;10.48;;
74957;SDS011;63741;42.624;26.276;2023-03-01T08:49:02;5.20;;;3.20;;
74957;SDS011;63741;42.624;26.276;2023-03-01T08:51:31;4.03;;;2.08;;
74957;SDS011;63741;42.624;26.276;2023-03-01T08:54:06;4.63;;;2.63;;
74957;SDS011;63741;42.624;26.276;2023-03-01T08:56:38;4.93;;;2.45;;
74957;SDS011;63741;42.624;26.276;2023-03-01T08:59:05;4.57;;;2.35;;
74957;SDS011;63741;42.624;26.276;2023-03-01T09:01:32;4.38;;;2.83;;
74957;SDS011;63741;42.624;26.276;2023-03-01T09:03:59;3.85;;;2.58;;
74957;SDS011;63741;42.624;26.276;2023-03-01T09:06:26;5.35;;;2.85;;
74957;SDS011;63741;42.624;26.276;2023-03-01T09:08:56;6.50;;;2.30;;
74957;SDS011;63741;42.624;26.276;2023-03-01T09:11:23;4.90;;;2.58;;
74957;SDS011;63741;42.624;26.276;2023-03-01T09:13:50;6.20;;;2.80;;
74957;SDS011;63741;42.624;26.276;2023-03-01T09:16:18;3.65;;;2.33;;
74957;SDS011;63741;42.624;26.276;2023-03-01T09:18:50;5.22;;;2.78;;
74957;SDS011;63741;42.624;26.276;2023-03-01T09:21:19;6.45;;;3.00;;
74957;SDS011;63741;42.624;26.276;2023-03-01T09:24:05;5.35;;;2.83;;
74957;SDS011;63741;42.624;26.276;2023-03-01T09:26:32;4.07;;;2.78;;
74957;SDS011;63741;42.624;26.276;2023-03-01T09:28:59;6.05;;;2.70;;
74957;SDS011;63741;42.624;26.276;2023-03-01T09:31:26;3.47;;;2.40;;
74957;SDS011;63741;42.624;26.276;2023-03-01T09:33:53;4.95;;;3.20;;
74957;SDS011;63741;42.624;26.276;2023-03-01T09:36:22;5.13;;;2.33;;
74957;SDS011;63741;42.624;26.276;2023-03-01T09:38:51;3.80;;;2.42;;
74957;SDS011;63741;42.624;26.276;2023-03-01T09:41:26;5.53;;;3.53;;
74957;SDS011;63741;42.624;26.276;2023-03-01T09:44:21;6.18;;;4.15;;
74957;SDS011;63741;42.624;26.276;2023-03-01T09:49:44;4.78;;;2.70;;
74957;SDS011;63741;42.624;26.276;2023-03-01T09:52:23;5.20;;;3.20;;
74957;SDS011;63741;42.624;26.276;2023-03-01T09:55:00;3.63;;;2.17;;
74957;SDS011;63741;42.624;26.276;2023-03-01T10:00:08;4.57;;;2.80;;
74957;SDS011;63741;42.624;26.276;2023-03-01T10:02:41;4.95;;;2.55;;
74957;SDS011;63741;42.624;26.276;2023-03-01T10:08:33;3.55;;;2.08;;
74957;SDS011;63741;42.624;26.276;2023-03-01T10:11:18;2.58;;;1.80;;
74957;SDS011;63741;42.624;26.276;2023-03-01T10:19:27;3.45;;;1.95;;
74957;SDS011;63741;42.624;26.276;2023-03-01T10:22:13;4.22;;;1.80;;
74957;SDS011;63741;42.624;26.276;2023-03-01T10:24:43;2.85;;;1.67;;
74957;SDS011;63741;42.624;26.276;2023-03-01T10:27:34;3.15;;;1.75;;
74957;SDS011;63741;42.624;26.276;2023-03-01T10:30:17;4.70;;;1.90;;
74957;SDS011;63741;42.624;26.276;2023-03-01T10:32:48;4.85;;;1.98;;
74957;SDS011;63741;42.624;26.276;2023-03-01T10:35:22;3.20;;;1.92;;
74957;SDS011;63741;42.624;26.276;2023-03-01T10:40:35;3.38;;;1.80;;
74957;SDS011;63741;42.624;26.276;2023-03-01T10:43:04;3.58;;;2.05;;
74957;SDS011;63741;42.624;26.276;2023-03-01T10:45:36;3.33;;;1.80;;
74957;SDS011;63741;42.624;26.276;2023-03-01T10:48:26;4.72;;;1.63;;
74957;SDS011;63741;42.624;26.276;2023-03-01T10:53:28;3.97;;;1.85;;
74957;SDS011;63741;42.624;26.276;2023-03-01T10:58:33;4.07;;;2.00;;
74957;SDS011;63741;42.624;26.276;2023-03-01T11:01:06;3.58;;;2.13;;
74957;SDS011;63741;42.624;26.276;2023-03-01T11:06:57;4.32;;;2.20;;
74957;SDS011;63741;42.624;26.276;2023-03-01T11:09:25;4.15;;;1.80;;
74957;SDS011;63741;42.624;26.276;2023-03-01T11:11:59;5.82;;;2.50;;
74957;SDS011;63741;42.624;26.276;2023-03-01T11:14:29;4.45;;;1.85;;
74957;SDS011;63741;42.624;26.276;2023-03-01T11:17:12;3.40;;;1.88;;
74957;SDS011;63741;42.624;26.276;2023-03-01T11:19:44;3.35;;;1.95;;
74957;SDS011;63741;42.624;26.276;2023-03-01T11:22:47;6.05;;;2.13;;
74957;SDS011;63741;42.624;26.276;2023-03-01T11:27:46;3.13;;;1.77;;
74957;SDS011;63741;42.624;26.276;2023-03-01T11:30:34;9.07;;;2.67;;
74957;SDS011;63741;42.624;26.276;2023-03-01T11:39:03;4.75;;;2.03;;
74957;SDS011;63741;42.624;26.276;2023-03-01T11:41:39;6.90;;;3.90;;
74957;SDS011;63741;42.624;26.276;2023-03-01T11:44:26;4.97;;;2.67;;
74957;SDS011;63741;42.624;26.276;2023-03-01T12:00:25;5.88;;;3.80;;
74957;SDS011;63741;42.624;26.276;2023-03-01T12:09:03;4.55;;;2.40;;
74957;SDS011;63741;42.624;26.276;2023-03-01T12:20:32;4.60;;;2.30;;
74957;SDS011;63741;42.624;26.276;2023-03-01T12:31:32;5.35;;;2.47;;
74957;SDS011;63741;42.624;26.276;2023-03-01T12:40:30;5.65;;;3.33;;
74957;SDS011;63741;42.624;26.276;2023-03-01T12:46:16;5.40;;;3.30;;
74957;SDS011;63741;42.624;26.276;2023-03-01T12:49:17;4.60;;;2.70;;
74957;SDS011;63741;42.624;26.276;2023-03-01T12:51:59;4.28;;;2.58;;
74957;SDS011;63741;42.624;26.276;2023-03-01T12:54:50;5.70;;;2.60;;
74957;SDS011;63741;42.624;26.276;2023-03-01T12:57:26;5.95;;;3.13;;
74957;SDS011;63741;42.624;26.276;2023-03-01T13:03:09;8.63;;;2.78;;
74957;SDS011;63741;42.624;26.276;2023-03-01T13:05:52;8.45;;;3.38;;
74957;SDS011;63741;42.624;26.276;2023-03-01T13:08:35;8.57;;;3.13;;
74957;SDS011;63741;42.624;26.276;2023-03-01T13:11:20;4.95;;;2.55;;
74957;SDS011;63741;42.624;26.276;2023-03-01T13:13:49;6.07;;;3.20;;
74957;SDS011;63741;42.624;26.276;2023-03-01T13:19:12;9.95;;;4.15;;
74957;SDS011;63741;42.624;26.276;2023-03-01T13:21:42;9.82;;;5.63;;
74957;SDS011;63741;42.624;26.276;2023-03-01T13:29:47;13.32;;;6.63;;
74957;SDS011;63741;42.624;26.276;2023-03-01T13:37:46;9.98;;;4.85;;
74957;SDS011;63741;42.624;26.276;2023-03-01T13:42:50;11.25;;;5.13;;
74957;SDS011;63741;42.624;26.276;2023-03-01T13:45:40;11.23;;;5.72;;
74957;SDS011;63741;42.624;26.276;2023-03-01T13:48:11;22.70;;;7.78;;
74957;SDS011;63741;42.624;26.276;2023-03-01T13:50:46;23.25;;;11.13;;
74957;SDS011;63741;42.624;26.276;2023-03-01T13:53:18;23.92;;;12.05;;
74957;SDS011;63741;42.624;26.276;2023-03-01T13:55:51;20.55;;;11.30;;
74957;SDS011;63741;42.624;26.276;2023-03-01T13:58:26;13.45;;;7.43;;
74957;SDS011;63741;42.624;26.276;2023-03-01T14:01:06;14.90;;;8.65;;
74957;SDS011;63741;42.624;26.276;2023-03-01T14:03:40;14.43;;;8.23;;
74957;SDS011;63741;42.624;26.276;2023-03-01T14:14:05;11.43;;;6.75;;
74957;SDS011;63741;42.624;26.276;2023-03-01T14:16:58;12.30;;;7.60;;
74957;SDS011;63741;42.624;26.276;2023-03-01T14:19:28;12.63;;;7.90;;
74957;SDS011;63741;42.624;26.276;2023-03-01T14:24:57;11.52;;;7.30;;
74957;SDS011;63741;42.624;26.276;2023-03-01T14:27:29;10.98;;;6.90;;
74957;SDS011;63741;42.624;26.276;2023-03-01T14:30:00;13.18;;;7.15;;
74957;SDS011;63741;42.624;26.276;2023-03-01T14:32:31;13.65;;;6.93;;
74957;SDS011;63741;42.624;26.276;2023-03-01T14:34:59;11.55;;;7.07;;
74957;SDS011;63741;42.624;26.276;2023-03-01T14:39:57;13.65;;;7.30;;
74957;SDS011;63741;42.624;26.276;2023-03-01T14:42:26;14.57;;;8.10;;
74957;SDS011;63741;42.624;26.276;2023-03-01T14:44:57;13.73;;;7.55;;
74957;SDS011;63741;42.624;26.276;2023-03-01T14:47:28;15.52;;;8.07;;
74957;SDS011;63741;42.624;26.276;2023-03-01T14:50:23;15.45;;;7.78;;
74957;SDS011;63741;42.624;26.276;2023-03-01T14:52:57;12.45;;;7.57;;
74957;SDS011;63741;42.624;26.276;2023-03-01T14:55:44;12.55;;;7.85;;
74957;SDS011;63741;42.624;26.276;2023-03-01T14:58:15;13.77;;;7.72;;
74957;SDS011;63741;42.624;26.276;2023-03-01T15:00:49;18.15;;;9.93;;
74957;SDS011;63741;42.624;26.276;2023-03-01T15:05:57;12.63;;;7.30;;
74957;SDS011;63741;42.624;26.276;2023-03-01T15:08:27;17.67;;;8.18;;
74957;SDS011;63741;42.624;26.276;2023-03-01T15:13:40;13.48;;;7.80;;
74957;SDS011;63741;42.624;26.276;2023-03-01T15:16:11;13.60;;;8.05;;
74957;SDS011;63741;42.624;26.276;2023-03-01T15:18:43;15.93;;;8.50;;
74957;SDS011;63741;42.624;26.276;2023-03-01T15:21:22;16.98;;;10.65;;
74957;SDS011;63741;42.624;26.276;2023-03-01T15:23:53;17.92;;;10.15;;
74957;SDS011;63741;42.624;26.276;2023-03-01T15:26:24;16.55;;;9.65;;
74957;SDS011;63741;42.624;26.276;2023-03-01T15:28:58;14.60;;;9.27;;
74957;SDS011;63741;42.624;26.276;2023-03-01T15:31:28;19.83;;;9.07;;
74957;SDS011;63741;42.624;26.276;2023-03-01T15:34:35;17.63;;;10.60;;
74957;SDS011;63741;42.624;26.276;2023-03-01T15:37:05;17.63;;;9.60;;
74957;SDS011;63741;42.624;26.276;2023-03-01T15:39:54;16.58;;;9.00;;
74957;SDS011;63741;42.624;26.276;2023-03-01T15:45:08;20.55;;;11.98;;
74957;SDS011;63741;42.624;26.276;2023-03-01T15:47:48;21.70;;;12.48;;
74957;SDS011;63741;42.624;26.276;2023-03-01T15:53:00;17.80;;;10.15;;
74957;SDS011;63741;42.624;26.276;2023-03-01T15:55:31;20.83;;;12.25;;
74957;SDS011;63741;42.624;26.276;2023-03-01T15:58:04;22.70;;;10.77;;
74957;SDS011;63741;42.624;26.276;2023-03-01T16:00:33;21.90;;;10.50;;
74957;SDS011;63741;42.624;26.276;2023-03-01T16:03:00;17.48;;;10.35;;
74957;SDS011;63741;42.624;26.276;2023-03-01T16:05:28;20.73;;;11.00;;
74957;SDS011;63741;42.624;26.276;2023-03-01T16:07:57;20.92;;;10.90;;
74957;SDS011;63741;42.624;26.276;2023-03-01T16:10:24;20.80;;;10.43;;
74957;SDS011;63741;42.624;26.276;2023-03-01T16:12:52;19.13;;;9.88;;
74957;SDS011;63741;42.624;26.276;2023-03-01T16:15:29;20.58;;;10.90;;
74957;SDS011;63741;42.624;26.276;2023-03-01T16:17:59;19.98;;;9.95;;
74957;SDS011;63741;42.624;26.276;2023-03-01T16:20:27;20.15;;;10.57;;
74957;SDS011;63741;42.624;26.276;2023-03-01T16:22:59;19.92;;;10.88;;
74957;SDS011;63741;42.624;26.276;2023-03-01T16:25:28;23.55;;;11.80;;
74957;SDS011;63741;42.624;26.276;2023-03-01T16:27:55;19.42;;;11.35;;
74957;SDS011;63741;42.624;26.276;2023-03-01T16:30:24;20.00;;;11.20;;
74957;SDS011;63741;42.624;26.276;2023-03-01T16:32:52;21.15;;;10.35;;
74957;SDS011;63741;42.624;26.276;2023-03-01T16:35:20;23.42;;;10.93;;
74957;SDS011;63741;42.624;26.276;2023-03-01T16:37:47;20.08;;;11.75;;
74957;SDS011;63741;42.624;26.276;2023-03-01T16:40:25;26.17;;;12.43;;
74957;SDS011;63741;42.624;26.276;2023-03-01T16:42:55;24.27;;;13.48;;
74957;SDS011;63741;42.624;26.276;2023-03-01T16:45:26;24.85;;;11.48;;
74957;SDS011;63741;42.624;26.276;2023-03-01T16:47:55;22.83;;;13.32;;
74957;SDS011;63741;42.624;26.276;2023-03-01T16:50:22;20.63;;;11.25;;
74957;SDS011;63741;42.624;26.276;2023-03-01T16:52:49;24.13;;;12.27;;
74957;SDS011;63741;42.624;26.276;2023-03-01T16:55:16;24.38;;;11.65;;
74957;SDS011;63741;42.624;26.276;2023-03-01T16:57:43;22.00;;;12.23;;
74957;SDS011;63741;42.624;26.276;2023-03-01T17:00:10;21.85;;;10.70;;
74957;SDS011;63741;42.624;26.276;2023-03-01T17:02:40;22.13;;;11.18;;
74957;SDS011;63741;42.624;26.276;2023-03-01T17:05:08;27.77;;;12.43;;
74957;SDS011;63741;42.624;26.276;2023-03-01T17:07:37;33.13;;;14.68;;
74957;SDS011;63741;42.624;26.276;2023-03-01T17:10:05;33.50;;;14.15;;
74957;SDS011;63741;42.624;26.276;2023-03-01T17:12:35;41.47;;;19.70;;
74957;SDS011;63741;42.624;26.276;2023-03-01T17:15:02;26.85;;;14.55;;